Time;durP1;ratioP1;P1;durP2;ratioP2;P2;SDS_P1;SDS_P2;PMS_P1;PMS_P2;Temp;Humidity;BMP_temperature;BMP_pressure;BME280_temperature;BME280_humidity;BME280_pressure;Samples;Min_cycle;Max_cycle;Signal;HPM_P1;HPM_P2
2023/12/22 00:00:34;;;;;;;10.10;7.10;;;;;;;16.69;33.57;97032.33;104816;1255;60699;-63
2023/12/22 00:03:03;;;;;;;9.00;7.60;;;;;;;16.78;33.34;97028.81;104648;1259;59716;-62
2023/12/22 00:05:31;;;;;;;9.70;7.30;;;;;;;16.64;33.58;97031.27;105294;1257;72790;-62
2023/12/22 00:07:59;;;;;;;13.60;8.00;;;;;;;16.60;33.75;97025.61;105045;1254;69013;-62
2023/12/22 00:10:26;;;;;;;8.70;7.50;;;;;;;16.60;33.64;97022.23;104821;1259;73117;-62
2023/12/22 00:12:54;;;;;;;10.10;7.50;;;;;;;16.52;33.86;97018.03;104935;1259;60639;-62
2023/12/22 00:15:22;;;;;;;8.80;7.30;;;;;;;16.56;33.85;97016.21;104838;1254;59739;-62
2023/12/22 00:17:50;;;;;;;;;;;;;;;16.69;33.73;97011.64;104532;1254;72852;-61
2023/12/22 00:20:19;;;;;;;9.80;7.70;;;;;;;16.68;33.68;97011.74;105100;1255;68325;-62
2023/12/22 00:22:46;;;;;;;10.50;7.00;;;;;;;16.66;33.81;97012.31;104981;1257;71912;-62
2023/12/22 00:25:14;;;;;;;11.40;7.40;;;;;;;16.80;33.55;97000.86;104577;1255;60637;-64
2023/12/22 00:27:42;;;;;;;;;;;;;;;16.68;33.69;96993.67;104750;1258;60643;-61
2023/12/22 00:30:10;;;;;;;9.40;6.40;;;;;;;16.63;33.77;96989.96;104511;1256;72954;-63
2023/12/22 00:32:38;;;;;;;10.00;7.40;;;;;;;16.66;33.71;96984.52;105322;1255;69150;-61
2023/12/22 00:35:07;;;;;;;8.10;6.90;;;;;;;16.64;33.72;96981.34;104824;1253;73328;-61
2023/12/22 00:37:35;;;;;;;10.70;7.30;;;;;;;16.70;33.64;96978.77;104642;1256;60462;-62
2023/12/22 00:40:07;;;;;;;9.60;7.10;;;;;;;16.87;33.33;96971.26;104914;1255;60519;-62
2023/12/22 00:42:35;;;;;;;8.70;7.00;;;;;;;16.90;33.27;96971.08;104236;1261;74631;-63
2023/12/22 00:45:03;;;;;;;;;;;;;;;16.92;33.26;96965.77;104515;1267;69072;-61
2023/12/22 00:47:31;;;;;;;9.10;7.00;;;;;;;16.79;33.49;96961.84;104631;1256;72770;-62
2023/12/22 00:49:59;;;;;;;10.30;7.60;;;;;;;16.89;33.28;96952.13;104260;1259;60638;-62
2023/12/22 00:52:26;;;;;;;;;;;;;;;16.88;33.31;96946.95;104842;1255;60452;-61
2023/12/22 00:54:54;;;;;;;7.80;6.80;;;;;;;16.84;33.22;96938.98;104696;1254;72465;-62
2023/12/22 00:57:22;;;;;;;9.60;6.70;;;;;;;16.79;33.46;96932.00;104755;1255;68379;-62
2023/12/22 00:59:50;;;;;;;;;;;;;;;16.68;33.49;96929.23;104425;1260;72451;-62
2023/12/22 01:02:18;;;;;;;;;;;;;;;16.82;33.43;96927.01;105199;1254;60671;-63
2023/12/22 01:04:46;;;;;;;9.60;7.50;;;;;;;16.84;33.27;96923.11;104549;1259;61305;-68
2023/12/22 01:07:15;;;;;;;8.50;7.00;;;;;;;16.70;33.41;96912.45;105121;1254;74004;-63
2023/12/22 01:09:43;;;;;;;8.30;7.30;;;;;;;16.65;33.51;96906.42;104633;1255;68802;-62
2023/12/22 01:12:11;;;;;;;9.90;7.70;;;;;;;16.56;33.66;96901.81;105118;1255;72908;-62
2023/12/22 01:14:39;;;;;;;9.70;7.00;;;;;;;16.57;33.67;96895.52;104423;1255;61332;-62
2023/12/22 01:17:07;;;;;;;9.40;7.40;;;;;;;16.41;33.78;96891.05;104804;1252;60557;-62
2023/12/22 01:19:35;;;;;;;18.10;8.10;;;;;;;16.43;33.91;96883.05;104657;1257;74464;-62
2023/12/22 01:22:03;;;;;;;12.00;8.00;;;;;;;16.47;33.83;96879.40;104673;1253;69381;-62
2023/12/22 01:24:30;;;;;;;;;;;;;;;16.55;33.63;96875.77;104557;1253;72523;-62
2023/12/22 01:26:59;;;;;;;10.10;7.70;;;;;;;16.55;33.51;96879.39;104750;1252;60981;-63
2023/12/22 01:29:27;;;;;;;11.10;7.30;;;;;;;16.51;33.67;96871.77;105076;1255;61409;-63
2023/12/22 01:31:55;;;;;;;;;;;;;;;16.55;33.55;96870.19;104733;1256;74081;-62
2023/12/22 01:34:23;;;;;;;12.10;8.30;;;;;;;16.58;33.55;96870.61;104784;1255;69094;-63
2023/12/22 01:36:50;;;;;;;11.40;7.20;;;;;;;16.65;33.46;96867.52;105226;1255;71775;-63
2023/12/22 01:39:18;;;;;;;;;;;;;;;16.59;33.45;96867.50;104840;1253;60578;-64
2023/12/22 01:41:46;;;;;;;;;;;;;;;16.41;33.75;96862.62;104648;1254;60621;-64
2023/12/22 01:44:13;;;;;;;10.30;7.10;;;;;;;16.55;33.56;96862.98;104441;1258;73683;-63
2023/12/22 01:46:41;;;;;;;9.80;7.70;;;;;;;16.48;33.57;96858.31;104460;1253;69023;-62
2023/12/22 01:49:09;;;;;;;13.60;8.80;;;;;;;16.48;33.53;96858.80;104589;1255;73377;-63
2023/12/22 01:51:39;;;;;;;11.50;7.30;;;;;;;16.50;33.53;96848.33;104939;1253;60668;-63
2023/12/22 01:54:07;;;;;;;12.10;8.70;;;;;;;16.50;33.51;96842.13;104747;1252;60684;-63
2023/12/22 01:56:35;;;;;;;;;;;;;;;16.66;33.36;96837.55;104862;1256;74496;-63
2023/12/22 01:59:02;;;;;;;;;;;;;;;16.64;33.31;96830.21;104571;1253;69640;-63
2023/12/22 02:01:30;;;;;;;;;;;;;;;16.65;33.37;96828.11;104519;1257;72869;-64
2023/12/22 02:03:58;;;;;;;8.70;7.40;;;;;;;16.57;33.36;96820.11;104636;1254;60553;-63
2023/12/22 02:06:26;;;;;;;12.20;7.60;;;;;;;16.72;33.14;96816.88;105015;1254;60582;-63
2023/12/22 02:08:53;;;;;;;9.00;7.40;;;;;;;16.81;33.03;96810.81;104918;1267;73655;-63
2023/12/22 02:11:21;;;;;;;11.50;8.00;;;;;;;16.78;33.06;96811.64;104912;1252;69434;-62
2023/12/22 02:13:49;;;;;;;8.50;7.70;;;;;;;16.86;32.98;96809.89;105325;1257;72785;-63
2023/12/22 02:16:29;;;;;;;9.60;7.80;;;;;;;16.87;33.06;96808.30;105061;1252;60612;-64
2023/12/22 02:18:57;;;;;;;9.10;7.20;;;;;;;16.94;33.03;96808.03;104845;1254;60564;-63
2023/12/22 02:21:26;;;;;;;;;;;;;;;16.91;32.96;96804.79;104645;1258;72953;-63
2023/12/22 02:23:54;;;;;;;10.60;7.40;;;;;;;16.95;32.91;96798.20;104974;1253;68637;-62
2023/12/22 02:26:27;;;;;;;9.90;8.10;;;;;;;17.01;32.83;96787.06;104862;1269;71623;-63
2023/12/22 02:28:56;;;;;;;11.90;8.30;;;;;;;16.91;32.90;96787.68;105033;1251;60703;-63
2023/12/22 02:31:37;;;;;;;10.90;7.90;;;;;;;16.96;32.95;96784.16;104529;1254;60673;-63
2023/12/22 02:34:07;;;;;;;10.30;7.60;;;;;;;17.04;32.80;96790.63;104540;1262;73566;-62
2023/12/22 02:36:36;;;;;;;8.70;7.80;;;;;;;17.06;32.81;96787.75;105129;1259;69312;-62
2023/12/22 02:39:04;;;;;;;7.90;7.10;;;;;;;17.17;32.60;96790.93;104665;1254;72674;-63
2023/12/22 02:41:33;;;;;;;9.40;7.90;;;;;;;16.95;32.92;96796.52;104629;1254;60906;-63
2023/12/22 02:44:01;;;;;;;10.70;7.70;;;;;;;16.65;33.31;96795.35;105024;1255;59686;-63
2023/12/22 02:46:29;;;;;;;10.30;8.10;;;;;;;16.56;33.50;96794.83;104577;1255;74546;-63
2023/12/22 02:48:56;;;;;;;11.30;8.30;;;;;;;16.97;33.12;96782.42;104825;1253;70192;-63
2023/12/22 02:51:24;;;;;;;10.40;8.90;;;;;;;17.21;32.74;96771.64;104738;1252;74746;-63
2023/12/22 02:53:54;;;;;;;11.60;7.80;;;;;;;16.77;33.22;96770.52;104606;1254;60442;-62
2023/12/22 02:56:22;;;;;;;11.30;7.20;;;;;;;16.90;33.20;96769.28;105352;1252;60508;-62
2023/12/22 02:58:50;;;;;;;12.10;7.80;;;;;;;16.64;33.40;96771.20;104611;1253;72540;-63
2023/12/22 03:01:18;;;;;;;12.00;8.60;;;;;;;16.74;33.33;96768.96;104454;1262;69430;-62
2023/12/22 03:03:46;;;;;;;11.40;8.60;;;;;;;16.93;33.05;96760.59;104569;1262;73347;-61
2023/12/22 03:06:14;;;;;;;10.50;7.20;;;;;;;16.77;33.20;96753.20;105561;1252;60652;-62
2023/12/22 03:08:42;;;;;;;;;;;;;;;16.88;32.99;96754.10;104610;1257;59535;-62
2023/12/22 03:11:10;;;;;;;8.60;7.00;;;;;;;16.96;32.91;96744.48;104643;1253;74127;-62
2023/12/22 03:13:37;;;;;;;;;;;;;;;16.77;33.22;96742.96;105292;1252;69720;-62
2023/12/22 03:16:08;;;;;;;;;;;;;;;16.62;33.38;96738.29;104541;1253;73366;-62
2023/12/22 03:18:39;;;;;;;9.70;7.40;;;;;;;16.75;33.32;96734.03;104764;1257;61020;-62
2023/12/22 03:21:09;;;;;;;10.70;7.90;;;;;;;16.80;33.25;96735.35;105032;1253;60527;-62
2023/12/22 03:23:36;;;;;;;9.10;8.00;;;;;;;16.81;33.23;96737.17;104487;1255;73691;-62
2023/12/22 03:26:04;;;;;;;8.80;7.50;;;;;;;16.77;33.27;96732.13;105369;1254;68483;-63
2023/12/22 03:28:33;;;;;;;9.40;7.90;;;;;;;16.65;33.45;96730.63;104574;1253;72472;-62
2023/12/22 03:31:01;;;;;;;10.60;8.30;;;;;;;16.78;33.38;96728.53;104463;1255;60613;-62
2023/12/22 03:33:29;;;;;;;;;;;;;;;16.81;33.23;96728.88;105073;1252;60601;-62
2023/12/22 03:35:57;;;;;;;9.00;7.40;;;;;;;16.98;33.06;96730.34;104457;1257;73559;-62
2023/12/22 03:38:24;;;;;;;8.60;7.60;;;;;;;17.30;32.63;96721.39;104937;1256;68268;-63
2023/12/22 03:40:52;;;;;;;10.60;8.20;;;;;;;17.42;32.47;96719.21;104495;1271;72766;-63
2023/12/22 03:43:20;;;;;;;;;;;;;;;17.10;32.77;96719.14;104575;1258;60579;-62
2023/12/22 03:45:49;;;;;;;9.40;7.60;;;;;;;17.05;32.89;96716.96;104447;1257;60505;-62
2023/12/22 03:48:17;;;;;;;9.80;7.50;;;;;;;17.03;32.88;96714.18;105065;1253;74080;-63
2023/12/22 03:50:45;;;;;;;;;;;;;;;16.99;32.86;96709.54;104679;1252;69616;-63
2023/12/22 03:53:12;;;;;;;;;;;;;;;17.03;32.80;96709.84;104623;1257;72738;-62
2023/12/22 03:55:42;;;;;;;;;;;;;;;16.93;32.96;96715.65;104612;1255;60713;-62
2023/12/22 03:58:10;;;;;;;8.30;6.90;;;;;;;16.81;33.15;96730.64;104678;1256;60623;-63
2023/12/22 04:00:38;;;;;;;9.80;7.60;;;;;;;16.77;33.25;96734.39;104823;1257;73596;-63
2023/12/22 04:03:05;;;;;;;10.00;7.90;;;;;;;16.74;33.23;96747.71;104641;1253;69677;-63
2023/12/22 04:05:33;;;;;;;8.90;7.10;;;;;;;16.88;33.18;96751.77;104416;1270;72322;-63
2023/12/22 04:08:01;;;;;;;7.80;6.70;;;;;;;16.67;33.40;96750.41;106037;1253;60691;-63
2023/12/22 04:10:29;;;;;;;8.20;6.90;;;;;;;16.58;33.66;96746.32;108418;1251;59451;-63
2023/12/22 04:12:56;;;;;;;;;;;;;;;16.69;33.56;96744.73;105371;1253;72769;-63
2023/12/22 04:15:24;;;;;;;;;;;;;;;16.70;33.66;96738.55;105961;1253;70018;-63
2023/12/22 04:17:52;;;;;;;;;;;;;;;16.71;33.66;96734.42;104962;1256;72315;-63
2023/12/22 04:20:20;;;;;;;12.00;9.30;;;;;;;16.47;33.91;96736.80;106077;1253;61633;-64
2023/12/22 04:22:48;;;;;;;9.80;7.40;;;;;;;16.54;33.83;96733.54;105234;1253;60628;-63
2023/12/22 04:25:16;;;;;;;;;;;;;;;16.58;33.78;96731.98;104398;1255;72710;-63
2023/12/22 04:27:44;;;;;;;8.50;7.50;;;;;;;16.50;33.82;96726.01;104835;1253;68334;-61
2023/12/22 04:30:13;;;;;;;8.20;7.10;;;;;;;16.40;33.91;96725.27;104966;1254;72392;-63
2023/12/22 04:32:41;;;;;;;9.70;7.60;;;;;;;16.55;33.88;96725.54;104578;1257;60702;-64
2023/12/22 04:35:09;;;;;;;9.80;7.60;;;;;;;16.52;33.78;96716.98;104794;1259;59749;-63
2023/12/22 04:37:36;;;;;;;9.90;7.50;;;;;;;16.54;33.85;96710.21;105142;1259;73960;-63
2023/12/22 04:40:04;;;;;;;8.80;7.20;;;;;;;16.54;33.77;96706.13;104423;1253;68115;-63
2023/12/22 04:42:32;;;;;;;9.50;8.00;;;;;;;16.35;33.88;96698.34;104814;1258;72348;-62
2023/12/22 04:45:01;;;;;;;9.20;7.50;;;;;;;16.56;33.70;96700.71;104778;1254;61143;-62
2023/12/22 04:47:28;;;;;;;9.00;7.20;;;;;;;16.44;33.90;96701.00;105736;1253;60462;-62
2023/12/22 04:49:56;;;;;;;8.00;7.00;;;;;;;16.51;33.87;96701.36;104694;1259;74525;-61
2023/12/22 04:52:24;;;;;;;8.70;7.10;;;;;;;16.67;33.66;96703.44;105117;1253;69249;-62
2023/12/22 04:54:52;;;;;;;8.40;7.50;;;;;;;16.66;33.76;96701.14;104719;1259;72543;-62
2023/12/22 04:57:21;;;;;;;;;;;;;;;16.66;33.82;96704.74;104822;1254;61551;-62
2023/12/22 04:59:49;;;;;;;8.60;6.90;;;;;;;16.73;33.73;96701.11;104852;1255;60441;-62
2023/12/22 05:02:17;;;;;;;10.20;7.50;;;;;;;16.98;33.34;96693.89;104695;1262;73807;-62
2023/12/22 05:04:45;;;;;;;10.10;7.40;;;;;;;16.90;33.36;96694.23;104901;1253;69456;-63
2023/12/22 05:07:12;;;;;;;9.60;8.30;;;;;;;16.83;33.46;96689.14;105212;1253;72481;-62
2023/12/22 05:09:44;;;;;;;9.00;8.20;;;;;;;16.69;33.54;96696.11;105103;1253;60882;-62
2023/12/22 05:12:14;;;;;;;8.80;7.80;;;;;;;16.52;33.96;96706.36;104825;1261;60489;-61
2023/12/22 05:14:42;;;;;;;8.90;8.00;;;;;;;16.57;33.84;96706.15;105206;1257;73701;-62
2023/12/22 05:17:10;;;;;;;10.00;8.20;;;;;;;16.53;33.86;96709.08;104883;1256;68077;-63
2023/12/22 05:19:38;;;;;;;;;;;;;;;16.32;34.26;96705.08;104793;1270;72671;-62
2023/12/22 05:22:06;;;;;;;10.20;7.10;;;;;;;16.64;33.94;96698.20;104508;1258;60683;-62
2023/12/22 05:24:33;;;;;;;;;;;;;;;16.64;33.84;96686.38;104747;1257;60547;-62
2023/12/22 05:27:02;;;;;;;8.40;7.30;;;;;;;16.54;34.18;96683.12;104598;1258;73745;-62
2023/12/22 05:29:29;;;;;;;10.00;7.90;;;;;;;16.64;34.01;96674.23;104676;1258;69049;-62
2023/12/22 05:31:57;;;;;;;9.80;8.10;;;;;;;16.64;33.99;96673.48;104789;1258;72463;-62
2023/12/22 05:34:25;;;;;;;8.80;7.50;;;;;;;16.80;33.78;96669.16;104507;1254;60992;-62
2023/12/22 05:36:54;;;;;;;8.80;7.60;;;;;;;16.75;33.81;96670.27;104326;1256;59701;-62
2023/12/22 05:39:22;;;;;;;11.60;7.50;;;;;;;16.66;33.94;96671.46;104650;1258;73615;-63
2023/12/22 05:41:50;;;;;;;;;;;;;;;16.92;33.66;96670.65;104454;1260;69787;-63
2023/12/22 05:44:17;;;;;;;9.10;7.40;;;;;;;16.87;33.74;96677.55;104387;1256;71396;-63
2023/12/22 05:46:45;;;;;;;9.60;7.30;;;;;;;16.88;33.74;96674.15;104367;1271;61725;-64
2023/12/22 05:49:15;;;;;;;;;;;;;;;17.04;33.48;96670.29;104618;1254;60647;-62
2023/12/22 05:51:43;;;;;;;8.10;7.20;;;;;;;17.06;33.64;96672.56;105743;1258;74535;-65
2023/12/22 05:54:11;;;;;;;10.80;8.30;;;;;;;16.92;33.66;96676.65;104610;1254;69440;-62
2023/12/22 05:56:40;;;;;;;10.80;7.90;;;;;;;16.86;33.76;96673.42;104771;1254;73733;-66
2023/12/22 05:59:07;;;;;;;8.10;7.30;;;;;;;16.87;33.86;96671.45;104616;1258;60584;-62
2023/12/22 06:01:36;;;;;;;9.50;7.50;;;;;;;16.78;33.97;96667.61;104501;1254;61092;-62
2023/12/22 06:04:05;;;;;;;8.60;7.60;;;;;;;16.79;33.98;96664.84;104743;1259;73651;-62
2023/12/22 06:06:33;;;;;;;10.90;9.10;;;;;;;16.78;34.02;96661.41;104819;1257;69805;-61
2023/12/22 06:09:01;;;;;;;9.10;7.90;;;;;;;16.80;33.82;96656.98;104893;1257;72587;-61
2023/12/22 06:11:30;;;;;;;;;;;;;;;16.87;33.84;96656.39;104958;1256;60743;-63
2023/12/22 06:13:58;;;;;;;10.20;8.00;;;;;;;16.94;33.87;96653.95;104701;1258;60560;-63
2023/12/22 06:16:26;;;;;;;10.70;8.40;;;;;;;16.94;33.82;96651.26;104373;1253;74042;-61
2023/12/22 06:18:54;;;;;;;11.00;8.20;;;;;;;16.87;33.90;96654.08;104028;1266;70162;-60
2023/12/22 06:21:22;;;;;;;;;;;;;;;16.89;33.89;96653.36;104720;1253;72888;-61
2023/12/22 06:23:50;;;;;;;;;;;;;;;16.90;33.93;96641.83;104390;1256;60701;-63
2023/12/22 06:26:18;;;;;;;9.00;8.00;;;;;;;16.90;33.93;96644.17;104876;1254;60413;-62
2023/12/22 06:28:46;;;;;;;8.80;7.50;;;;;;;16.85;33.97;96639.73;104858;1254;74797;-60
2023/12/22 06:31:21;;;;;;;9.60;8.30;;;;;;;16.81;34.01;96634.39;104854;1254;69671;-64
2023/12/22 06:33:50;;;;;;;10.80;8.00;;;;;;;16.93;34.02;96632.68;104741;1253;72901;-61
2023/12/22 06:36:22;;;;;;;11.20;8.20;;;;;;;16.87;34.01;96631.13;105031;1256;62683;-62
2023/12/22 06:38:50;;;;;;;9.30;8.30;;;;;;;16.81;34.13;96627.45;104844;1253;60583;-60
2023/12/22 06:41:22;;;;;;;11.70;8.00;;;;;;;16.80;34.24;96628.36;104821;1257;73051;-64
2023/12/22 06:43:56;;;;;;;9.50;8.20;;;;;;;16.81;34.33;96630.33;104583;1261;70285;-61
2023/12/22 06:46:27;;;;;;;8.80;7.90;;;;;;;16.75;34.45;96625.95;104524;1256;72413;-61
2023/12/22 06:48:55;;;;;;;11.70;7.90;;;;;;;16.79;34.32;96621.20;105534;1253;60460;-61
2023/12/22 06:51:26;;;;;;;9.90;8.40;;;;;;;16.81;34.31;96621.38;105046;1254;60642;-61
2023/12/22 06:53:57;;;;;;;9.20;7.80;;;;;;;16.66;34.54;96626.98;104298;1268;74634;-62
2023/12/22 06:56:30;;;;;;;10.40;8.00;;;;;;;16.65;34.67;96624.36;105937;1258;69216;-61
2023/12/22 06:58:58;;;;;;;9.80;7.60;;;;;;;16.76;34.54;96620.27;104827;1261;73458;-61
2023/12/22 07:01:28;;;;;;;9.80;8.10;;;;;;;16.71;34.58;96616.79;105212;1255;62562;-65
2023/12/22 07:03:59;;;;;;;11.10;8.60;;;;;;;16.67;34.67;96611.05;104665;1253;60532;-64
2023/12/22 07:06:33;;;;;;;8.40;7.50;;;;;;;16.95;34.49;96606.73;105148;1259;74751;-65
2023/12/22 07:09:19;;;;;;;9.10;7.70;;;;;;;16.82;34.63;96604.48;104883;1253;68953;-62
2023/12/22 07:11:52;;;;;;;10.60;8.70;;;;;;;16.80;34.65;96602.87;106806;1253;73323;-62
2023/12/22 07:14:20;;;;;;;9.40;8.30;;;;;;;16.72;34.85;96605.34;107852;1253;62938;-65
2023/12/22 07:16:51;;;;;;;11.50;9.10;;;;;;;16.77;34.94;96602.68;108033;1253;60125;-64
2023/12/22 07:19:19;;;;;;;10.70;8.60;;;;;;;16.70;34.89;96596.58;107935;1253;74043;-61
2023/12/22 07:21:46;;;;;;;;;;;;;;;16.87;34.83;96598.49;108316;1253;69126;-60
2023/12/22 07:24:15;;;;;;;17.10;12.10;;;;;;;16.88;34.81;96596.30;107934;1254;72860;-61
2023/12/22 07:26:44;;;;;;;18.10;11.20;;;;;;;16.76;35.13;96592.05;107612;1253;62968;-60
2023/12/22 07:29:13;;;;;;;13.90;10.30;;;;;;;16.76;35.08;96585.09;108311;1253;59643;-62
2023/12/22 07:31:42;;;;;;;11.90;9.90;;;;;;;16.72;35.22;96581.80;107764;1253;74512;-61
2023/12/22 07:34:13;;;;;;;12.90;9.70;;;;;;;16.73;35.23;96576.26;108102;1253;71641;-61
2023/12/22 07:36:42;;;;;;;10.40;9.30;;;;;;;16.78;35.28;96574.41;107977;1256;71410;-59
2023/12/22 07:39:26;;;;;;;10.50;8.80;;;;;;;16.87;35.08;96576.20;108308;1253;62290;-61
2023/12/22 07:41:54;;;;;;;;;;;;;;;16.83;35.12;96575.27;108363;1253;60784;-59
2023/12/22 07:44:24;;;;;;;12.10;10.30;;;;;;;16.74;35.35;96575.75;108055;1253;72817;-61
2023/12/22 07:46:58;;;;;;;11.50;8.80;;;;;;;16.71;35.40;96569.80;108165;1253;69333;-60
2023/12/22 07:49:29;;;;;;;;;;;;;;;16.90;35.11;96569.70;108122;1253;73298;-60
2023/12/22 07:52:01;;;;;;;11.20;8.20;;;;;;;16.86;35.29;96572.88;108406;1253;60708;-61
2023/12/22 07:54:30;;;;;;;10.80;7.90;;;;;;;16.90;35.28;96566.11;108111;1253;60092;-61
2023/12/22 07:56:58;;;;;;;10.80;8.20;;;;;;;17.02;35.11;96561.59;108205;1253;75606;-61
2023/12/22 07:59:26;;;;;;;11.30;9.00;;;;;;;17.08;35.03;96556.41;107912;1253;69225;-60
2023/12/22 08:01:59;;;;;;;9.80;8.60;;;;;;;17.09;35.02;96562.48;107689;1253;72395;-59
2023/12/22 08:04:27;;;;;;;9.90;8.10;;;;;;;17.12;35.05;96564.30;108099;1256;60971;-60
2023/12/22 08:06:55;;;;;;;10.60;8.20;;;;;;;17.10;34.93;96560.81;108369;1253;59167;-60
2023/12/22 08:09:23;;;;;;;7.80;6.90;;;;;;;17.05;35.06;96561.56;108353;1253;73604;-61
2023/12/22 08:11:52;;;;;;;;;;;;;;;17.48;34.71;96556.77;108217;1253;69320;-62
2023/12/22 08:14:20;;;;;;;9.30;7.90;;;;;;;17.33;34.72;96548.84;108336;1253;72523;-62
2023/12/22 08:16:49;;;;;;;11.60;9.20;;;;;;;17.30;34.82;96542.17;108196;1253;59945;-62
2023/12/22 08:19:17;;;;;;;10.00;8.60;;;;;;;17.04;35.18;96542.42;108050;1254;59692;-63
2023/12/22 08:21:46;;;;;;;9.60;8.10;;;;;;;16.89;35.58;96536.87;107717;1253;74059;-63
2023/12/22 08:24:17;;;;;;;8.40;7.60;;;;;;;16.88;35.56;96536.14;107690;1253;69685;-62
2023/12/22 08:26:50;;;;;;;9.90;8.60;;;;;;;16.93;35.66;96539.62;108150;1253;72533;-62
2023/12/22 08:32:12;;;;;;;9.00;8.00;;;;;;;16.80;37.44;96528.09;101046;1291;619402;-63
2023/12/22 08:34:40;;;;;;;9.60;7.80;;;;;;;18.13;34.16;96518.13;103363;1276;61296;-61
2023/12/22 08:37:08;;;;;;;8.10;7.30;;;;;;;17.99;34.16;96504.11;103741;1272;59468;-61
2023/12/22 08:39:36;;;;;;;9.20;7.60;;;;;;;17.90;34.34;96507.49;103455;1272;73247;-61
2023/12/22 08:42:04;;;;;;;10.00;8.20;;;;;;;18.16;33.95;96500.36;103310;1285;69183;-62
2023/12/22 08:44:30;;;;;;;9.00;8.10;;;;;;;18.28;33.82;96505.16;103712;1266;142675;-61
2023/12/22 08:46:57;;;;;;;10.40;8.10;;;;;;;18.07;34.04;96522.08;103845;1264;61370;-61
2023/12/22 08:49:25;;;;;;;10.80;8.10;;;;;;;18.11;33.93;96515.04;104125;1261;60164;-62
2023/12/22 08:51:52;;;;;;;;;;;;;;;18.05;33.90;96511.59;104337;1273;73508;-62
2023/12/22 08:54:18;;;;;;;9.80;8.00;;;;;;;18.12;33.96;96502.85;104764;1258;69993;-61
2023/12/22 08:56:47;;;;;;;9.00;7.50;;;;;;;18.13;33.87;96497.23;104384;1262;72573;-62
2023/12/22 08:59:14;;;;;;;9.10;7.50;;;;;;;18.03;33.99;96496.55;104106;1261;62533;-64
2023/12/22 09:01:42;;;;;;;11.00;9.30;;;;;;;17.90;34.05;96497.23;104496;1257;60265;-61
2023/12/22 09:04:10;;;;;;;;;;;;;;;17.74;34.21;96495.04;105028;1257;73499;-60
2023/12/22 09:06:37;;;;;;;13.70;9.00;;;;;;;17.67;34.44;96490.61;104619;1257;68870;-61
2023/12/22 09:09:04;;;;;;;12.30;9.40;;;;;;;17.70;34.37;96489.84;104667;1256;72315;-61
2023/12/22 09:11:32;;;;;;;10.70;7.70;;;;;;;17.82;34.21;96491.85;104861;1263;60800;-60
2023/12/22 09:14:01;;;;;;;11.20;9.10;;;;;;;17.85;34.07;96490.67;104389;1263;61487;-61
2023/12/22 09:16:28;;;;;;;13.40;8.70;;;;;;;17.82;34.03;96490.73;104457;1257;72776;-61
2023/12/22 09:18:56;;;;;;;9.00;8.10;;;;;;;17.64;34.20;96492.51;104712;1258;70363;-60
2023/12/22 09:21:23;;;;;;;11.10;8.30;;;;;;;17.67;34.25;96496.59;104174;1257;72391;-60
2023/12/22 09:23:50;;;;;;;9.80;8.10;;;;;;;17.73;34.20;96493.95;104461;1260;61549;-59
2023/12/22 09:26:18;;;;;;;;;;;;;;;17.69;34.18;96495.83;104196;1272;61646;-59
2023/12/22 09:28:46;;;;;;;9.50;8.50;;;;;;;17.77;34.11;96493.94;104834;1261;73119;-58
2023/12/22 09:31:15;;;;;;;10.10;9.00;;;;;;;17.84;33.96;96488.46;104461;1263;69772;-59
2023/12/22 09:33:43;;;;;;;12.10;9.10;;;;;;;17.78;34.00;96484.85;104489;1258;72981;-62
2023/12/22 09:36:11;;;;;;;10.00;8.80;;;;;;;17.71;34.08;96486.34;104680;1264;62463;-61
2023/12/22 09:38:38;;;;;;;14.60;9.30;;;;;;;17.64;34.28;96490.95;105228;1257;59849;-61
2023/12/22 09:41:05;;;;;;;11.30;8.90;;;;;;;17.65;34.32;96483.94;105467;1257;72999;-62
2023/12/22 09:43:36;;;;;;;9.20;7.90;;;;;;;17.49;34.50;96481.92;104276;1257;69976;-62
2023/12/22 09:46:05;;;;;;;8.40;7.40;;;;;;;17.42;34.65;96485.59;104247;1267;72669;-62
2023/12/22 09:48:32;;;;;;;10.40;8.10;;;;;;;17.39;34.83;96486.86;104313;1264;61040;-63
2023/12/22 09:51:02;;;;;;;9.70;8.40;;;;;;;17.39;34.69;96485.83;103974;1263;60590;-61
2023/12/22 09:53:31;;;;;;;10.00;8.20;;;;;;;17.61;34.53;96485.52;104087;1258;73482;-62
2023/12/22 09:55:58;;;;;;;10.90;8.80;;;;;;;17.56;34.54;96488.77;104141;1267;70018;-60
2023/12/22 09:58:25;;;;;;;13.10;9.70;;;;;;;17.42;34.73;96484.73;104347;1258;72244;-61
2023/12/22 10:00:54;;;;;;;10.90;9.10;;;;;;;17.33;34.88;96485.98;104509;1260;60074;-60
2023/12/22 10:03:24;;;;;;;13.70;9.70;;;;;;;17.39;34.74;96482.48;104228;1257;60273;-59
2023/12/22 10:05:51;;;;;;;11.30;9.40;;;;;;;17.44;34.73;96480.84;104027;1260;73845;-63
2023/12/22 10:08:20;;;;;;;10.30;8.90;;;;;;;17.32;34.74;96473.21;104227;1278;70388;-62
2023/12/22 10:10:52;;;;;;;14.40;9.10;;;;;;;17.34;34.92;96470.46;104872;1257;71136;-63
2023/12/22 10:13:21;;;;;;;11.10;9.40;;;;;;;17.17;35.23;96475.02;103948;1264;61543;-62
2023/12/22 10:15:48;;;;;;;12.80;9.70;;;;;;;16.91;35.56;96477.08;104221;1264;59895;-63
2023/12/22 10:18:16;;;;;;;13.30;10.10;;;;;;;16.90;35.57;96478.71;104154;1260;73362;-64
2023/12/22 10:20:43;;;;;;;10.30;9.30;;;;;;;16.89;35.70;96469.47;104991;1256;69286;-64
2023/12/22 10:23:11;;;;;;;13.20;9.30;;;;;;;16.99;35.60;96462.79;104831;1261;72381;-64
2023/12/22 10:25:40;;;;;;;10.60;9.30;;;;;;;17.02;35.68;96461.20;104849;1258;61046;-63
2023/12/22 10:28:10;;;;;;;12.20;9.80;;;;;;;17.39;35.24;96461.98;104208;1257;60753;-63
2023/12/22 10:30:38;;;;;;;11.00;9.90;;;;;;;16.94;35.83;96461.71;104396;1257;71960;-63
2023/12/22 10:33:05;;;;;;;;;;;;;;;16.78;36.18;96455.13;104203;1261;69485;-64
2023/12/22 10:35:32;;;;;;;10.20;8.80;;;;;;;17.00;35.71;96450.84;104123;1263;72624;-63
2023/12/22 10:38:00;;;;;;;12.00;10.30;;;;;;;16.93;35.97;96449.80;104257;1257;61362;-63
2023/12/22 10:40:32;;;;;;;12.10;10.20;;;;;;;16.98;35.87;96446.55;104159;1263;60444;-63
2023/12/22 10:42:59;;;;;;;12.40;9.70;;;;;;;16.92;35.99;96444.16;107722;1257;71959;-64
2023/12/22 10:45:26;;;;;;;13.30;9.70;;;;;;;16.92;36.08;96444.36;107761;1257;68871;-63
2023/12/22 10:47:53;;;;;;;11.50;10.00;;;;;;;16.68;36.42;96438.59;107821;1255;73108;-64
2023/12/22 10:50:20;;;;;;;10.00;8.90;;;;;;;16.93;36.30;96429.43;107565;1257;61773;-64
2023/12/22 10:52:51;;;;;;;9.90;8.60;;;;;;;16.85;36.42;96420.99;105648;1257;59861;-63
2023/12/22 10:55:18;;;;;;;10.20;8.70;;;;;;;16.93;36.39;96423.69;104972;1260;73800;-62
2023/12/22 10:57:47;;;;;;;13.30;8.80;;;;;;;17.04;36.25;96431.15;104225;1263;70331;-62
2023/12/22 11:00:16;;;;;;;10.90;9.40;;;;;;;16.91;36.37;96430.14;104328;1257;73117;-63
2023/12/22 11:02:43;;;;;;;13.00;9.90;;;;;;;17.03;36.24;96428.34;104281;1261;61818;-64
2023/12/22 11:05:12;;;;;;;11.80;9.50;;;;;;;17.11;36.16;96420.96;104120;1257;60454;-64
2023/12/22 11:07:39;;;;;;;10.80;9.20;;;;;;;16.94;36.46;96419.27;104699;1256;72993;-64
2023/12/22 11:10:07;;;;;;;10.20;9.10;;;;;;;16.83;36.42;96412.71;104667;1257;69548;-63
2023/12/22 11:12:37;;;;;;;10.70;9.40;;;;;;;16.84;36.50;96416.11;104153;1256;72426;-63
2023/12/22 11:15:06;;;;;;;10.40;8.90;;;;;;;17.12;36.19;96415.48;106462;1257;59893;-67
2023/12/22 11:17:39;;;;;;;12.70;10.00;;;;;;;17.42;35.65;96414.66;104598;1261;60381;-63
2023/12/22 11:20:08;;;;;;;14.00;11.70;;;;;;;17.53;35.51;96409.80;104229;1262;72969;-63
2023/12/22 11:22:36;;;;;;;13.40;10.20;;;;;;;17.34;35.68;96413.64;104355;1260;69511;-62
2023/12/22 11:25:06;;;;;;;12.20;10.60;;;;;;;17.01;36.20;96418.91;104092;1257;73483;-65
2023/12/22 11:27:34;;;;;;;12.20;10.50;;;;;;;17.08;36.11;96426.16;104455;1260;61140;-62
2023/12/22 11:30:01;;;;;;;13.60;10.70;;;;;;;17.23;35.91;96420.78;104487;1257;60724;-63
2023/12/22 11:32:29;;;;;;;12.70;11.00;;;;;;;16.86;36.45;96424.72;104152;1259;72570;-62
2023/12/22 11:34:58;;;;;;;12.50;9.30;;;;;;;16.88;36.36;96425.23;104434;1256;70150;-62
2023/12/22 11:37:27;;;;;;;11.00;9.70;;;;;;;16.68;36.85;96430.95;103945;1264;72992;-63
2023/12/22 11:39:54;;;;;;;;;;;;;;;16.60;36.92;96435.56;104294;1263;61121;-62